createdAt,value
2018-09-05T00:00:57.072Z,24.30
2018-09-05T00:03:25.914Z,25.43
2018-09-05T00:05:54.690Z,27.33
2018-09-05T00:08:23.493Z,26.93
2018-09-05T00:10:52.270Z,26.20
2018-09-05T00:13:21.006Z,25.17
2018-09-05T00:15:49.869Z,24.40
2018-09-05T00:18:18.654Z,25.33
2018-09-05T00:20:47.435Z,25.37
2018-09-05T00:23:16.218Z,28.83
2018-09-05T00:25:45.001Z,27.73
2018-09-05T00:28:13.810Z,26.17
2018-09-05T00:30:42.693Z,27.80
2018-09-05T00:33:11.619Z,28.27
2018-09-05T00:35:40.454Z,27.73
2018-09-05T00:38:09.270Z,27.37
2018-09-05T00:40:38.185Z,27.83
2018-09-05T00:43:07.083Z,29.23
2018-09-05T00:45:35.854Z,31.63
2018-09-05T00:48:04.773Z,25.23
2018-09-05T00:50:33.543Z,29.07
2018-09-05T00:53:02.363Z,32.50
2018-09-05T00:55:31.157Z,28.10
2018-09-05T00:57:59.937Z,31.07
2018-09-05T01:00:28.741Z,32.03
2018-09-05T01:02:57.566Z,30.60
2018-09-05T01:05:26.349Z,30.10
2018-09-05T01:08:12.086Z,29.70
2018-09-05T01:10:40.913Z,29.97
2018-09-05T01:13:10.370Z,31.37
2018-09-05T01:15:40.214Z,27.33
2018-09-05T01:18:08.943Z,29.23
2018-09-05T01:20:37.780Z,28.57
2018-09-05T01:23:06.550Z,27.27
2018-09-05T01:25:35.422Z,30.27
2018-09-05T01:28:04.343Z,31.07
2018-09-05T01:30:33.030Z,29.03
2018-09-05T01:33:01.872Z,32.27
2018-09-05T01:35:30.697Z,29.73
2018-09-05T01:37:59.531Z,29.30
2018-09-05T01:40:28.363Z,31.23
2018-09-05T01:42:57.396Z,29.70
2018-09-05T01:45:26.301Z,33.60
2018-09-05T01:47:55.591Z,29.30
2018-09-05T01:50:29.645Z,31.23
2018-09-05T01:52:58.465Z,30.97
2018-09-05T01:55:27.903Z,33.53
2018-09-05T01:57:56.873Z,31.97
2018-09-05T02:00:30.674Z,32.47
2018-09-05T02:02:59.742Z,31.67
2018-09-05T02:05:28.613Z,34.03
2018-09-05T02:07:57.413Z,32.70
2018-09-05T02:10:26.165Z,32.30
2018-09-05T02:12:55.018Z,33.20
2018-09-05T02:15:23.852Z,33.03
2018-09-05T02:17:52.921Z,30.73
2018-09-05T02:20:21.764Z,29.20
2018-09-05T02:22:50.682Z,32.50
2018-09-05T02:25:19.520Z,30.47
2018-09-05T02:27:48.310Z,27.93
2018-09-05T02:30:17.176Z,30.07
2018-09-05T02:32:46.004Z,33.23
2018-09-05T02:35:15.249Z,31.80
2018-09-05T02:37:44.261Z,30.27
2018-09-05T02:40:13.262Z,30.10
2018-09-05T02:42:42.027Z,32.43
2018-09-05T03:02:25.788Z,34.63
2018-09-05T03:04:54.839Z,33.27
2018-09-05T03:07:23.566Z,31.00
2018-09-05T03:09:52.421Z,31.83
2018-09-05T03:12:22.161Z,32.63
2018-09-05T03:14:52.402Z,34.00
2018-09-05T03:17:21.778Z,32.27
2018-09-05T03:19:50.581Z,32.43
2018-09-05T03:22:19.353Z,36.80
2018-09-05T03:24:48.217Z,34.67
2018-09-05T03:27:17.018Z,36.77
2018-09-05T03:29:45.864Z,35.03
2018-09-05T03:32:14.825Z,35.30
2018-09-05T03:34:43.606Z,33.27
2018-09-05T03:37:12.400Z,31.37
2018-09-05T03:39:41.197Z,32.93
2018-09-05T03:42:10.050Z,30.73
2018-09-05T03:44:38.843Z,34.17
2018-09-05T03:47:07.646Z,31.50
2018-09-05T03:49:36.463Z,31.97
2018-09-05T03:52:05.289Z,28.33
2018-09-05T03:54:34.103Z,32.20
2018-09-05T03:57:03.011Z,30.57
2018-09-05T03:59:31.901Z,28.50
2018-09-05T04:02:00.946Z,30.10
2018-09-05T04:04:29.737Z,30.80
2018-09-05T04:06:58.542Z,30.50
2018-09-05T04:09:27.567Z,29.90
2018-09-05T04:11:56.489Z,28.67
2018-09-05T04:14:25.392Z,28.83
2018-09-05T04:16:54.282Z,29.20
2018-09-05T04:19:23.231Z,31.33
2018-09-05T04:21:52.727Z,31.40
2018-09-05T04:24:21.705Z,30.13
2018-09-05T04:26:50.506Z,28.47
2018-09-05T04:29:19.385Z,29.57
2018-09-05T04:31:48.222Z,28.90
2018-09-05T04:34:17.161Z,30.90
2018-09-05T04:36:45.918Z,29.07
2018-09-05T04:39:14.808Z,29.97
2018-09-05T04:41:43.601Z,32.73
2018-09-05T04:44:12.373Z,31.87
2018-09-05T04:46:41.122Z,28.87
2018-09-05T04:51:46.317Z,31.83
2018-09-05T04:54:15.209Z,27.07
2018-09-05T04:56:44.160Z,33.07
2018-09-05T04:59:12.974Z,31.33
2018-09-05T05:01:41.766Z,36.23
2018-09-05T05:04:10.641Z,35.30
2018-09-05T05:06:39.595Z,30.53
2018-09-05T05:09:11.906Z,32.63
2018-09-05T05:11:42.020Z,34.30
2018-09-05T05:14:11.296Z,32.90
2018-09-05T05:16:40.056Z,30.77
2018-09-05T05:19:08.928Z,30.83
2018-09-05T05:21:37.874Z,30.17
2018-09-05T05:24:06.751Z,30.60
2018-09-05T05:26:35.478Z,29.07
2018-09-05T05:29:04.107Z,31.87
2018-09-05T05:31:32.852Z,28.97
2018-09-05T05:34:01.473Z,28.50
2018-09-05T05:36:30.212Z,28.13
2018-09-05T05:38:58.889Z,27.00
2018-09-05T05:41:27.773Z,26.37
2018-09-05T05:43:56.357Z,30.47
2018-09-05T05:46:24.946Z,29.60
2018-09-05T05:48:53.337Z,29.77
2018-09-05T05:51:21.793Z,30.23
2018-09-05T05:53:50.202Z,29.17
2018-09-05T05:56:18.660Z,26.70
2018-09-05T05:58:47.141Z,31.60
2018-09-05T06:01:15.664Z,28.50
2018-09-05T06:03:44.915Z,28.67
2018-09-05T06:06:14.203Z,30.17
2018-09-05T06:08:55.235Z,29.00
2018-09-05T06:11:23.935Z,30.67
2018-09-05T06:13:52.572Z,29.20
2018-09-05T06:16:21.283Z,28.73
2018-09-05T06:18:49.973Z,30.30
2018-09-05T06:21:18.629Z,29.20
2018-09-05T06:23:47.241Z,30.37
2018-09-05T06:26:15.897Z,27.67
2018-09-05T06:28:44.497Z,31.00
2018-09-05T06:31:13.296Z,30.57
2018-09-05T06:33:41.810Z,31.13
2018-09-05T06:36:10.477Z,27.80
2018-09-05T06:38:39.076Z,28.53
2018-09-05T06:41:07.871Z,27.80
2018-09-05T06:43:36.534Z,29.10
2018-09-05T06:46:05.271Z,31.53
2018-09-05T06:48:34.031Z,29.07
2018-09-05T06:51:05.895Z,27.73
2018-09-05T06:53:36.675Z,30.23
2018-09-05T06:56:05.507Z,29.67
2018-09-05T06:58:34.566Z,27.90
2018-09-05T07:01:03.341Z,31.37
2018-09-05T07:03:38.534Z,28.70
2018-09-05T07:06:07.029Z,28.10
2018-09-05T07:08:35.449Z,28.20
2018-09-05T07:11:03.865Z,29.40
2018-09-05T07:13:32.382Z,30.70
2018-09-05T07:16:00.852Z,31.70
2018-09-05T07:18:29.445Z,29.57
2018-09-05T07:21:05.681Z,33.20
2018-09-05T07:23:26.513Z,32.93
2018-09-05T07:25:54.939Z,32.63
2018-09-05T07:28:23.447Z,29.47
2018-09-05T07:30:51.853Z,30.90
2018-09-05T07:33:20.304Z,28.37
2018-09-05T07:35:48.713Z,31.43
2018-09-05T07:38:17.173Z,29.87
2018-09-05T07:40:45.594Z,29.03
2018-09-05T07:43:14.041Z,32.57
2018-09-05T07:45:42.505Z,32.20
2018-09-05T07:48:10.978Z,28.50
2018-09-05T07:50:39.457Z,27.97
2018-09-05T07:53:07.881Z,29.43
2018-09-05T07:55:36.301Z,30.53
2018-09-05T07:58:04.993Z,32.80
2018-09-05T08:00:33.444Z,31.60
2018-09-05T08:03:01.956Z,30.97
2018-09-05T08:05:30.417Z,30.23
2018-09-05T08:07:58.907Z,27.97
2018-09-05T08:10:27.377Z,31.83
2018-09-05T08:12:55.829Z,29.87
2018-09-05T08:15:24.264Z,27.73
2018-09-05T08:17:52.713Z,29.33
2018-09-05T08:20:21.259Z,32.90
2018-09-05T08:22:49.707Z,28.27
2018-09-05T08:25:18.166Z,30.57
2018-09-05T08:27:46.661Z,31.13
2018-09-05T08:30:15.088Z,27.97
2018-09-05T08:32:43.566Z,28.03
2018-09-05T08:35:12.247Z,25.70
2018-09-05T08:37:40.650Z,23.17
2018-09-05T08:40:08.975Z,25.33
2018-09-05T08:42:38.054Z,25.73
2018-09-05T08:45:07.300Z,27.03
2018-09-05T08:47:35.626Z,24.70
2018-09-05T08:50:04.106Z,26.37
2018-09-05T08:52:32.495Z,23.43
2018-09-05T08:55:01.110Z,22.30
2018-09-05T08:57:29.554Z,23.97
2018-09-05T08:59:58.031Z,33.30
2018-09-05T09:02:26.514Z,32.17
2018-09-05T09:04:54.987Z,26.00
2018-09-05T09:07:28.622Z,23.20
2018-09-05T09:09:57.156Z,25.30
2018-09-05T09:12:25.730Z,22.57
2018-09-05T09:14:57.154Z,24.47
2018-09-05T09:17:25.565Z,18.60
2018-09-05T09:19:54.009Z,19.23
2018-09-05T09:22:22.409Z,32.07
2018-09-05T09:24:50.937Z,33.33
2018-09-05T09:27:19.409Z,22.60
2018-09-05T09:29:47.926Z,17.37
2018-09-05T09:32:16.374Z,21.77
2018-09-05T09:34:44.802Z,23.70
2018-09-05T09:37:13.322Z,21.03
2018-09-05T09:39:41.771Z,19.70
2018-09-05T09:42:10.181Z,24.00
2018-09-05T09:44:38.647Z,18.87
2018-09-05T09:47:07.128Z,15.67
2018-09-05T09:49:35.585Z,15.27
2018-09-05T09:52:09.368Z,18.80
2018-09-05T09:54:37.896Z,16.93
2018-09-05T09:57:06.309Z,13.90
2018-09-05T09:59:34.802Z,12.13
2018-09-05T10:02:08.378Z,14.30
2018-09-05T10:04:42.210Z,14.37
2018-09-05T10:07:15.810Z,15.40
2018-09-05T10:09:49.573Z,14.23
2018-09-05T10:12:23.098Z,14.95
2018-09-05T10:14:58.574Z,15.45
2018-09-05T10:17:31.125Z,15.15
2018-09-05T10:20:00.514Z,14.20
2018-09-05T10:22:29.826Z,14.10
2018-09-05T10:24:58.376Z,15.28
2018-09-05T10:27:27.686Z,15.48
2018-09-05T10:29:56.548Z,14.68
2018-09-05T10:32:25.589Z,16.45
2018-09-05T10:34:54.844Z,15.48
2018-09-05T10:37:23.261Z,16.60
2018-09-05T10:39:51.734Z,14.75
2018-09-05T10:42:20.240Z,17.95
2018-09-05T10:44:48.681Z,16.02
2018-09-05T10:47:17.169Z,14.47
2018-09-05T10:49:45.613Z,15.28
2018-09-05T10:52:14.031Z,14.98
2018-09-05T10:54:42.478Z,15.88
2018-09-05T10:57:10.923Z,14.47
2018-09-05T10:59:39.417Z,14.97
2018-09-05T11:02:07.896Z,14.53
2018-09-05T11:04:36.370Z,14.33
2018-09-05T11:07:04.919Z,14.30
2018-09-05T11:09:33.386Z,15.50
2018-09-05T11:12:01.867Z,14.57
2018-09-05T11:14:30.289Z,14.35
2018-09-05T11:16:58.778Z,13.20
2018-09-05T11:19:27.261Z,14.45
2018-09-05T11:21:55.666Z,13.65
2018-09-05T11:24:24.157Z,13.55
2018-09-05T11:26:52.584Z,12.93
2018-09-05T11:29:20.997Z,14.98
2018-09-05T11:31:49.434Z,13.20
2018-09-05T11:34:17.877Z,11.95
2018-09-05T11:36:46.286Z,18.25
2018-09-05T11:39:15.079Z,13.03
2018-09-05T11:41:43.535Z,13.25
2018-09-05T11:44:11.976Z,13.03
2018-09-05T11:46:40.408Z,12.53
2018-09-05T11:49:09.591Z,13.03
2018-09-05T11:51:38.205Z,11.63
2018-09-05T11:54:07.239Z,10.95
2018-09-05T11:56:35.699Z,14.65
2018-09-05T11:59:04.221Z,12.65
2018-09-05T12:01:32.675Z,13.10
2018-09-05T12:04:01.171Z,14.07
2018-09-05T12:06:29.605Z,13.98
2018-09-05T12:08:58.041Z,12.53
2018-09-05T12:11:26.485Z,11.50
2018-09-05T12:13:54.902Z,12.97
2018-09-05T12:16:23.354Z,13.00
2018-09-05T12:18:51.878Z,17.23
2018-09-05T12:21:20.347Z,12.33
2018-09-05T12:23:48.788Z,11.97
2018-09-05T12:26:17.238Z,12.55
2018-09-05T12:28:45.661Z,11.05
2018-09-05T12:31:14.141Z,11.80
2018-09-05T12:33:42.568Z,14.40
2018-09-05T12:36:11.000Z,14.05
2018-09-05T12:38:39.434Z,14.33
2018-09-05T12:41:07.931Z,16.97
2018-09-05T12:43:36.326Z,13.58
2018-09-05T12:46:05.085Z,13.35
2018-09-05T12:48:33.481Z,17.20
2018-09-05T12:51:01.965Z,14.53
2018-09-05T12:53:30.409Z,15.00
2018-09-05T12:55:58.867Z,16.10
2018-09-05T12:58:27.342Z,13.40
2018-09-05T13:00:55.830Z,16.23
2018-09-05T13:03:24.249Z,19.73
2018-09-05T13:05:52.700Z,17.35
2018-09-05T13:08:21.139Z,17.05
2018-09-05T13:10:49.575Z,18.62
2018-09-05T13:13:17.967Z,19.25
2018-09-05T13:15:46.444Z,17.92
2018-09-05T13:18:14.871Z,16.95
2018-09-05T13:20:43.309Z,14.83
2018-09-05T13:23:11.870Z,13.90
2018-09-05T13:25:40.346Z,13.68
2018-09-05T13:28:08.859Z,15.28
2018-09-05T13:30:37.289Z,13.62
2018-09-05T13:33:05.739Z,13.30
2018-09-05T13:35:34.398Z,14.05
2018-09-05T13:38:09.355Z,15.80
2018-09-05T13:40:37.849Z,15.65
2018-09-05T13:43:06.286Z,12.00
2018-09-05T13:45:34.745Z,12.45
2018-09-05T13:48:03.205Z,11.83
2018-09-05T13:50:31.710Z,12.60
2018-09-05T13:53:00.103Z,11.05
2018-09-05T13:55:28.546Z,11.45
2018-09-05T13:57:56.959Z,11.73
2018-09-05T14:00:25.442Z,11.88
2018-09-05T14:02:53.979Z,14.28
2018-09-05T14:05:22.313Z,10.95
2018-09-05T14:07:50.758Z,11.43
2018-09-05T14:10:19.199Z,12.13
2018-09-05T14:12:48.712Z,11.70
2018-09-05T14:15:17.197Z,13.60
2018-09-05T14:17:45.642Z,14.90
2018-09-05T14:20:14.157Z,15.80
2018-09-05T14:22:43.282Z,11.88
2018-09-05T14:25:11.773Z,12.00
2018-09-05T14:27:40.255Z,11.50
2018-09-05T14:30:08.769Z,11.57
2018-09-05T14:32:37.217Z,12.82
2018-09-05T14:35:05.810Z,11.60
2018-09-05T14:37:34.297Z,11.43
2018-09-05T14:40:02.802Z,12.60
2018-09-05T14:42:31.304Z,12.45
2018-09-05T14:44:59.722Z,12.28
2018-09-05T14:47:28.149Z,13.05
2018-09-05T14:49:56.825Z,13.35
2018-09-05T14:52:25.279Z,12.50
2018-09-05T14:54:53.795Z,12.82
2018-09-05T14:57:22.305Z,12.90
2018-09-05T14:59:50.784Z,13.08
2018-09-05T15:02:20.096Z,13.03
2018-09-05T15:04:48.589Z,15.70
2018-09-05T15:07:17.376Z,14.47
2018-09-05T15:09:45.819Z,13.83
2018-09-05T15:12:14.254Z,13.62
2018-09-05T15:14:43.213Z,13.68
2018-09-05T15:17:11.646Z,12.60
2018-09-05T15:19:40.080Z,13.62
2018-09-05T15:22:08.586Z,13.87
2018-09-05T15:24:36.992Z,12.87
2018-09-05T15:27:05.679Z,14.40
2018-09-05T15:29:34.139Z,14.90
2018-09-05T15:32:02.596Z,12.87
2018-09-05T15:34:31.041Z,14.20
2018-09-05T15:36:59.466Z,13.47
2018-09-05T15:39:27.973Z,13.43
2018-09-05T15:41:56.357Z,12.77
2018-09-05T15:44:24.790Z,12.40
2018-09-05T15:46:53.298Z,13.17
2018-09-05T15:49:21.762Z,12.40
2018-09-05T15:51:54.585Z,12.90
2018-09-05T15:54:23.735Z,12.57
2018-09-05T15:56:52.546Z,14.10
2018-09-05T15:59:21.309Z,13.10
2018-09-05T16:01:49.788Z,13.13
2018-09-05T16:04:18.302Z,15.67
2018-09-05T16:06:46.854Z,14.57
2018-09-05T16:09:15.329Z,15.00
2018-09-05T16:11:43.796Z,17.10
2018-09-05T16:14:12.250Z,17.40
2018-09-05T16:16:40.709Z,21.77
2018-09-05T16:19:09.189Z,16.30
2018-09-05T16:21:38.294Z,17.50
2018-09-05T16:24:06.778Z,18.90
2018-09-05T16:26:35.231Z,21.67
2018-09-05T16:29:03.832Z,23.33
2018-09-05T16:31:32.267Z,21.83
2018-09-05T16:34:00.809Z,21.10
2018-09-05T16:36:29.350Z,22.00
2018-09-05T16:38:57.839Z,22.37
2018-09-05T16:41:26.388Z,19.67
2018-09-05T16:43:54.937Z,19.20
2018-09-05T16:46:23.436Z,20.60
2018-09-05T16:48:51.976Z,21.20
2018-09-05T16:51:20.460Z,19.97
2018-09-05T16:53:48.918Z,23.10
2018-09-05T16:56:17.412Z,23.60
2018-09-05T16:58:45.885Z,26.27
2018-09-05T17:01:14.325Z,25.93
2018-09-05T17:03:42.780Z,21.30
2018-09-05T17:06:11.285Z,20.43
2018-09-05T17:08:39.744Z,19.03
2018-09-05T17:11:08.339Z,19.50
2018-09-05T17:13:36.790Z,18.57
2018-09-05T17:16:05.254Z,22.00
2018-09-05T17:18:33.772Z,20.33
2018-09-05T17:21:02.246Z,20.50
2018-09-05T17:23:30.770Z,20.40
2018-09-05T17:25:59.244Z,22.80
2018-09-05T17:28:27.817Z,20.20
2018-09-05T17:30:56.217Z,19.57
2018-09-05T17:33:24.989Z,18.77
2018-09-05T17:35:53.438Z,18.63
2018-09-05T17:38:21.944Z,17.20
2018-09-05T17:40:50.434Z,21.23
2018-09-05T17:43:18.898Z,20.73
2018-09-05T17:45:47.541Z,20.07
2018-09-05T17:48:16.038Z,21.43
2018-09-05T17:50:44.495Z,22.57
2018-09-05T17:53:12.941Z,19.67
2018-09-05T17:55:41.456Z,17.43
2018-09-05T17:58:09.955Z,16.93
2018-09-05T18:00:38.465Z,19.20
2018-09-05T18:03:07.062Z,18.00
2018-09-05T18:05:35.617Z,16.10
2018-09-05T18:08:04.124Z,19.27
2018-09-05T18:10:32.790Z,18.03
2018-09-05T18:13:01.745Z,17.13
2018-09-05T18:15:30.241Z,17.00
2018-09-05T18:17:58.890Z,15.80
2018-09-05T18:20:27.446Z,15.17
2018-09-05T18:22:55.926Z,13.63
2018-09-05T18:25:24.369Z,13.97
2018-09-05T18:27:52.841Z,14.77
2018-09-05T18:30:21.324Z,15.93
2018-09-05T18:32:49.794Z,15.87
2018-09-05T18:35:18.335Z,14.50
2018-09-05T18:37:46.750Z,15.00
2018-09-05T18:40:15.278Z,13.90
2018-09-05T18:42:43.721Z,15.17
2018-09-05T18:45:12.209Z,15.40
2018-09-05T18:47:40.661Z,16.83
2018-09-05T18:50:09.179Z,17.90
2018-09-05T18:52:37.621Z,17.37
2018-09-05T18:55:06.188Z,15.97
2018-09-05T18:57:34.652Z,14.40
2018-09-05T19:00:03.191Z,15.00
2018-09-05T19:02:31.673Z,14.93
2018-09-05T19:05:00.328Z,16.80
2018-09-05T19:07:28.774Z,13.80
2018-09-05T19:09:57.242Z,11.53
2018-09-05T19:12:25.892Z,13.63
2018-09-05T19:17:48.046Z,10.53
2018-09-05T19:20:16.502Z,10.43
2018-09-05T19:22:44.951Z,12.87
2018-09-05T19:25:13.401Z,11.07
2018-09-05T19:27:41.940Z,11.20
2018-09-05T19:30:10.419Z,12.33
2018-09-05T19:32:38.897Z,12.87
2018-09-05T19:35:07.409Z,14.63
2018-09-05T19:37:36.633Z,12.17
2018-09-05T19:40:05.130Z,12.07
2018-09-05T19:42:33.850Z,12.17
2018-09-05T19:45:02.329Z,12.30
2018-09-05T19:47:30.905Z,11.93
2018-09-05T19:49:59.501Z,13.40
2018-09-05T19:52:27.986Z,13.10
2018-09-05T19:54:56.592Z,12.20
2018-09-05T19:57:25.044Z,11.73
2018-09-05T19:59:59.195Z,12.47
2018-09-05T20:02:27.838Z,11.57
2018-09-05T20:04:56.455Z,15.23
2018-09-05T20:07:24.992Z,13.37
2018-09-05T20:09:53.458Z,13.20
2018-09-05T20:12:21.881Z,12.23
2018-09-05T20:14:50.338Z,12.83
2018-09-05T20:17:19.639Z,14.07
2018-09-05T20:19:48.212Z,12.67
2018-09-05T20:22:16.641Z,13.57
2018-09-05T20:24:45.177Z,14.47
2018-09-05T20:27:13.699Z,13.17
2018-09-05T20:29:42.168Z,16.00
2018-09-05T20:32:10.604Z,16.63
2018-09-05T20:34:39.066Z,16.63
2018-09-05T20:37:07.653Z,15.40
2018-09-05T20:39:36.133Z,16.17
2018-09-05T20:42:04.665Z,15.20
2018-09-05T20:44:36.467Z,15.97
2018-09-05T20:47:05.120Z,16.73
2018-09-05T20:49:33.670Z,16.70
2018-09-05T20:52:02.129Z,16.67
2018-09-05T20:54:30.643Z,16.90
2018-09-05T20:57:05.504Z,19.07
2018-09-05T20:59:34.009Z,16.90
2018-09-05T21:02:02.514Z,18.03
2018-09-05T21:04:36.620Z,17.67
2018-09-05T21:07:05.282Z,19.97
2018-09-05T21:09:33.748Z,18.77
2018-09-05T21:12:02.236Z,18.37
2018-09-05T21:14:30.697Z,20.17
2018-09-05T21:16:59.164Z,19.60
2018-09-05T21:19:27.599Z,21.83
2018-09-05T21:21:56.049Z,22.17
2018-09-05T21:24:24.672Z,24.80
2018-09-05T21:26:53.191Z,22.03
2018-09-05T21:29:21.618Z,21.87
2018-09-05T21:31:50.081Z,20.53
2018-09-05T21:34:18.495Z,19.13
2018-09-05T21:36:46.973Z,19.07
2018-09-05T21:39:15.425Z,19.57
2018-09-05T21:41:43.905Z,18.67
2018-09-05T21:44:12.406Z,17.77
2018-09-05T21:46:40.862Z,20.67
2018-09-05T21:49:09.337Z,23.27
2018-09-05T21:51:37.791Z,21.87
2018-09-05T21:54:06.226Z,24.70
2018-09-05T21:56:34.715Z,27.20
2018-09-05T21:59:03.246Z,27.40
2018-09-05T22:01:31.711Z,32.17
2018-09-05T22:04:00.150Z,35.10
2018-09-05T22:06:28.562Z,37.93
2018-09-05T22:08:57.037Z,36.40
2018-09-05T22:11:26.530Z,35.40
2018-09-05T22:13:55.742Z,37.90
2018-09-05T22:16:24.190Z,38.97
2018-09-05T22:18:52.721Z,40.43
2018-09-05T22:21:21.181Z,39.70
2018-09-05T22:23:49.574Z,39.23
2018-09-05T22:26:18.050Z,42.90
2018-09-05T22:28:46.502Z,40.53
2018-09-05T22:31:14.922Z,41.87
2018-09-05T22:33:43.335Z,47.73
2018-09-05T22:36:11.829Z,46.90
2018-09-05T22:38:40.257Z,50.07
2018-09-05T22:41:08.679Z,49.40
2018-09-05T22:43:48.599Z,51.00
2018-09-05T22:46:29.467Z,52.13
2018-09-05T22:49:11.967Z,56.70
2018-09-05T22:51:56.515Z,55.80
2018-09-05T22:54:48.181Z,60.87
2018-09-05T22:57:39.666Z,58.43
2018-09-05T23:00:35.862Z,60.97
2018-09-05T23:07:27.162Z,57.77
2018-09-05T23:10:06.778Z,67.13
2018-09-05T23:12:46.306Z,67.00
2018-09-05T23:15:26.095Z,65.63
2018-09-05T23:20:12.731Z,67.03
2018-09-05T23:22:52.364Z,68.97
2018-09-05T23:25:20.784Z,66.57
2018-09-05T23:27:49.230Z,70.57
2018-09-05T23:30:17.705Z,67.93
2018-09-05T23:32:46.174Z,63.93
2018-09-05T23:35:14.606Z,65.87
2018-09-05T23:37:43.317Z,70.07
2018-09-05T23:40:11.762Z,66.07
2018-09-05T23:42:40.202Z,64.80
2018-09-05T23:45:08.718Z,65.77
2018-09-05T23:47:37.180Z,69.90
2018-09-05T23:50:05.692Z,67.20
2018-09-05T23:52:34.163Z,64.80
2018-09-05T23:55:02.598Z,67.43
2018-09-05T23:57:31.087Z,70.80
2018-09-05T23:59:59.548Z,75.80
